createdAt,value
2022-10-03T00:00:58.892Z,11.97
2022-10-03T00:03:36.990Z,11.03
2022-10-03T00:06:09.430Z,11.70
2022-10-03T00:09:03.579Z,11.70
2022-10-03T00:11:58.208Z,11.40
2022-10-03T00:14:47.522Z,11.60
2022-10-03T00:17:31.664Z,11.50
2022-10-03T00:20:27.563Z,11.50
2022-10-03T00:23:00.170Z,11.60
2022-10-03T00:25:30.257Z,11.30
2022-10-03T00:28:27.885Z,11.80
2022-10-03T00:30:54.796Z,11.67
2022-10-03T00:33:32.556Z,11.80
2022-10-03T00:36:14.383Z,11.57
2022-10-03T00:38:41.135Z,11.63
2022-10-03T00:41:28.182Z,11.53
2022-10-03T00:44:17.003Z,11.70
2022-10-03T00:46:49.741Z,11.87
2022-10-03T00:49:50.568Z,11.80
2022-10-03T00:52:42.086Z,11.60
2022-10-03T00:55:30.480Z,11.90
2022-10-03T00:58:15.751Z,11.53
2022-10-03T01:00:50.118Z,11.30
2022-10-03T01:03:46.291Z,11.77
2022-10-03T01:06:33.992Z,11.47
2022-10-03T01:09:20.652Z,11.90
2022-10-03T01:12:11.817Z,11.47
2022-10-03T01:15:00.146Z,11.60
2022-10-03T01:17:52.706Z,11.60
2022-10-03T01:20:40.756Z,12.00
2022-10-03T01:23:43.878Z,11.87
2022-10-03T01:26:13.675Z,11.47
2022-10-03T01:29:04.375Z,11.70
2022-10-03T01:31:47.142Z,11.43
2022-10-03T01:34:23.033Z,11.40
2022-10-03T01:37:05.726Z,11.37
2022-10-03T01:39:39.949Z,11.50
2022-10-03T01:42:16.945Z,11.53
2022-10-03T01:44:43.790Z,10.97
2022-10-03T01:47:19.522Z,11.17
2022-10-03T01:49:57.836Z,11.73
2022-10-03T01:52:31.288Z,11.50
2022-10-03T01:55:25.502Z,11.63
2022-10-03T01:58:18.350Z,11.67
2022-10-03T02:00:56.429Z,11.87
2022-10-03T02:03:26.400Z,11.90
2022-10-03T02:06:11.057Z,11.80
2022-10-03T02:08:40.784Z,12.17
2022-10-03T02:11:10.900Z,11.97
2022-10-03T02:13:48.667Z,11.73
2022-10-03T02:16:30.060Z,11.77
2022-10-03T02:19:29.790Z,12.07
2022-10-03T02:22:00.529Z,11.77
2022-10-03T02:24:37.078Z,12.00
2022-10-03T02:27:42.717Z,12.07
2022-10-03T02:30:25.209Z,11.77
2022-10-03T02:33:01.532Z,12.07
2022-10-03T02:36:05.886Z,11.70
2022-10-03T02:38:44.805Z,11.80
2022-10-03T02:41:23.390Z,12.00
2022-10-03T02:44:18.079Z,11.00
2022-10-03T02:47:21.736Z,11.70
2022-10-03T02:50:23.759Z,12.07
2022-10-03T02:53:19.917Z,12.17
2022-10-03T02:56:29.736Z,12.37
2022-10-03T02:59:33.758Z,11.97
2022-10-03T03:02:26.462Z,12.17
2022-10-03T03:05:12.960Z,11.77
2022-10-03T03:07:55.834Z,12.30
2022-10-03T03:10:45.242Z,12.40
2022-10-03T03:13:43.174Z,12.30
2022-10-03T03:16:38.230Z,12.20
2022-10-03T03:19:20.376Z,11.70
2022-10-03T03:22:02.293Z,12.10
2022-10-03T03:24:42.857Z,12.30
2022-10-03T03:27:35.177Z,12.63
2022-10-03T03:30:19.005Z,12.40
2022-10-03T03:33:09.809Z,12.07
2022-10-03T03:36:16.712Z,12.27
2022-10-03T03:39:14.206Z,11.93
2022-10-03T03:42:03.769Z,12.37
2022-10-03T03:44:49.354Z,12.20
2022-10-03T03:47:21.865Z,12.37
2022-10-03T03:50:00.615Z,12.80
2022-10-03T03:52:42.617Z,11.90
2022-10-03T03:55:46.146Z,12.50
2022-10-03T03:58:45.278Z,12.67
2022-10-03T04:01:49.249Z,12.00
2022-10-03T04:04:29.273Z,12.30
2022-10-03T04:07:08.868Z,12.30
2022-10-03T04:10:12.777Z,12.53
2022-10-03T04:13:10.353Z,12.30
2022-10-03T04:16:11.016Z,12.47
2022-10-03T04:19:00.250Z,12.33
2022-10-03T04:21:41.131Z,12.30
2022-10-03T04:24:19.860Z,12.27
2022-10-03T04:26:59.681Z,12.07
2022-10-03T04:29:27.453Z,12.20
2022-10-03T04:32:18.730Z,12.33
2022-10-03T04:34:54.269Z,12.23
2022-10-03T04:37:31.938Z,12.23
2022-10-03T04:40:17.451Z,12.33
2022-10-03T04:42:44.236Z,12.10
2022-10-03T04:45:30.881Z,12.37
2022-10-03T04:48:29.097Z,12.30
2022-10-03T04:51:46.579Z,12.27
2022-10-03T04:54:15.447Z,12.50
2022-10-03T04:57:01.656Z,12.87
2022-10-03T04:59:38.390Z,12.57
2022-10-03T05:02:15.269Z,12.70
2022-10-03T05:05:01.061Z,12.80
2022-10-03T05:07:54.937Z,12.83
2022-10-03T05:10:39.921Z,12.47
2022-10-03T05:13:34.860Z,12.53
2022-10-03T05:16:16.795Z,13.00
2022-10-03T05:19:02.020Z,12.53
2022-10-03T05:21:50.440Z,12.67
2022-10-03T05:24:38.771Z,12.47
2022-10-03T05:27:36.476Z,12.90
2022-10-03T05:30:10.002Z,12.80
2022-10-03T05:32:56.530Z,12.60
2022-10-03T05:35:35.289Z,12.37
2022-10-03T05:38:30.101Z,12.80
2022-10-03T05:40:59.671Z,12.80
2022-10-03T05:43:54.509Z,12.50
2022-10-03T05:46:41.643Z,12.50
2022-10-03T05:49:28.914Z,12.80
2022-10-03T05:52:32.712Z,12.50
2022-10-03T05:55:25.904Z,12.47
2022-10-03T05:58:08.640Z,12.90
2022-10-03T06:00:57.268Z,12.77
2022-10-03T06:04:00.880Z,12.67
2022-10-03T06:07:08.200Z,13.07
2022-10-03T06:10:04.493Z,13.60
2022-10-03T06:13:00.969Z,13.33
2022-10-03T06:15:38.560Z,12.77
2022-10-03T06:18:26.963Z,13.87
2022-10-03T06:21:17.344Z,13.60
2022-10-03T06:23:47.384Z,13.40
2022-10-03T06:26:37.141Z,13.50
2022-10-03T06:29:10.133Z,13.37
2022-10-03T06:32:13.964Z,12.73
2022-10-03T06:35:08.100Z,13.23
2022-10-03T06:37:43.733Z,13.10
2022-10-03T06:40:32.089Z,12.87
2022-10-03T06:43:17.208Z,12.40
2022-10-03T06:45:56.048Z,12.40
2022-10-03T06:49:01.233Z,13.03
2022-10-03T06:51:31.238Z,11.77
2022-10-03T06:54:16.476Z,13.47
2022-10-03T06:56:58.162Z,12.93
2022-10-03T06:59:34.406Z,12.80
2022-10-03T07:02:27.265Z,12.80
2022-10-03T07:05:38.635Z,12.73
2022-10-03T07:08:45.393Z,12.50
2022-10-03T07:11:46.818Z,11.97
2022-10-03T07:14:42.530Z,12.73
2022-10-03T07:17:47.285Z,12.00
2022-10-03T07:20:32.148Z,12.50
2022-10-03T07:23:06.282Z,12.40
2022-10-03T07:26:18.979Z,11.53
2022-10-03T07:28:48.655Z,12.03
2022-10-03T07:31:37.038Z,11.90
2022-10-03T07:34:31.910Z,12.27
2022-10-03T07:37:43.166Z,12.33
2022-10-03T07:41:13.797Z,12.13
2022-10-03T07:44:04.094Z,12.70
2022-10-03T07:46:45.991Z,12.37
2022-10-03T07:49:27.614Z,11.93
2022-10-03T07:52:29.610Z,12.37
2022-10-03T07:55:36.674Z,12.07
2022-10-03T07:58:15.572Z,11.93
2022-10-03T08:00:55.263Z,11.87
2022-10-03T08:03:44.744Z,12.57
2022-10-03T08:06:43.475Z,12.40
2022-10-03T08:09:37.100Z,12.40
2022-10-03T08:12:36.723Z,12.50
2022-10-03T08:15:23.871Z,11.80
2022-10-03T08:17:56.482Z,11.80
2022-10-03T08:20:47.929Z,11.97
2022-10-03T08:23:37.762Z,12.13
2022-10-03T08:26:44.246Z,10.80
2022-10-03T08:29:16.849Z,11.17
2022-10-03T08:32:23.254Z,11.63
2022-10-03T08:35:22.584Z,10.73
2022-10-03T08:38:10.385Z,11.47
2022-10-03T08:41:16.009Z,11.90
2022-10-03T08:44:13.407Z,11.30
2022-10-03T08:47:05.196Z,11.50
2022-10-03T08:49:33.871Z,11.33
2022-10-03T08:52:21.455Z,11.47
2022-10-03T08:55:03.579Z,11.80
2022-10-03T08:57:54.368Z,11.70
2022-10-03T09:00:47.246Z,11.13
2022-10-03T09:03:40.713Z,11.07
2022-10-03T09:06:24.797Z,10.97
2022-10-03T09:09:14.593Z,11.60
2022-10-03T09:12:09.132Z,11.33
2022-10-03T09:15:01.800Z,11.33
2022-10-03T09:17:43.685Z,11.80
2022-10-03T09:20:34.680Z,11.70
2022-10-03T09:23:26.238Z,11.40
2022-10-03T09:26:41.826Z,11.37
2022-10-03T09:29:35.107Z,11.93
2022-10-03T09:32:20.184Z,11.77
2022-10-03T09:35:17.730Z,11.77
2022-10-03T09:38:15.329Z,11.73
2022-10-03T09:41:19.344Z,11.97
2022-10-03T09:44:15.190Z,11.50
2022-10-03T09:47:21.635Z,12.07
2022-10-03T09:50:13.235Z,12.17
2022-10-03T09:53:21.786Z,11.50
2022-10-03T09:56:16.195Z,12.60
2022-10-03T09:58:56.044Z,12.00
2022-10-03T10:01:25.797Z,12.03
2022-10-03T10:04:32.348Z,12.47
2022-10-03T10:07:25.675Z,12.30
2022-10-03T10:10:29.181Z,12.77
2022-10-03T10:13:18.247Z,12.40
2022-10-03T10:16:13.304Z,12.63
2022-10-03T10:19:09.339Z,12.50
2022-10-03T10:21:57.492Z,12.67
2022-10-03T10:24:55.058Z,12.30
2022-10-03T10:27:36.988Z,11.80
2022-10-03T10:30:28.261Z,11.90
2022-10-03T10:33:01.104Z,12.07
2022-10-03T10:35:46.511Z,12.40
2022-10-03T10:38:30.941Z,11.87
2022-10-03T10:41:33.662Z,12.23
2022-10-03T10:44:22.276Z,11.90
2022-10-03T10:47:23.424Z,11.60
2022-10-03T10:50:02.343Z,11.63
2022-10-03T10:53:07.159Z,12.00
2022-10-03T10:56:04.495Z,11.90
2022-10-03T10:59:09.399Z,11.73
2022-10-03T11:01:57.666Z,11.53
2022-10-03T11:04:36.667Z,10.90
2022-10-03T11:07:40.872Z,11.90
2022-10-03T11:10:45.138Z,11.83
2022-10-03T11:13:20.622Z,12.10
2022-10-03T11:16:14.505Z,11.80
2022-10-03T11:19:06.429Z,11.50
2022-10-03T11:22:05.677Z,11.93
2022-10-03T11:25:13.186Z,11.20
2022-10-03T11:28:31.708Z,11.60
2022-10-03T11:31:04.802Z,11.53
2022-10-03T11:34:16.559Z,11.30
2022-10-03T11:36:53.177Z,11.00
2022-10-03T11:39:35.063Z,11.40
2022-10-03T11:42:04.937Z,11.07
2022-10-03T11:44:31.941Z,11.67
2022-10-03T11:47:17.251Z,11.73
2022-10-03T11:50:02.717Z,11.83
2022-10-03T11:52:42.398Z,11.57
2022-10-03T11:55:27.755Z,11.53
2022-10-03T11:58:34.727Z,11.50
2022-10-03T12:01:13.014Z,12.07
2022-10-03T12:03:57.415Z,11.47
2022-10-03T12:06:49.009Z,11.53
2022-10-03T12:09:54.610Z,11.70
2022-10-03T12:12:28.278Z,11.20
2022-10-03T12:15:03.546Z,11.50
2022-10-03T12:17:40.623Z,10.90
2022-10-03T12:20:18.368Z,11.10
2022-10-03T12:23:00.129Z,11.10
2022-10-03T12:25:36.955Z,12.00
2022-10-03T12:28:21.002Z,11.30
2022-10-03T12:30:56.544Z,11.87
2022-10-03T12:34:00.753Z,11.40
2022-10-03T12:36:53.331Z,11.60
2022-10-03T12:39:54.196Z,11.43
2022-10-03T12:42:51.292Z,11.80
2022-10-03T12:45:24.041Z,11.53
2022-10-03T12:48:22.321Z,11.67
2022-10-03T12:51:22.993Z,11.67
2022-10-03T12:54:07.370Z,11.43
2022-10-03T12:56:50.209Z,11.73
2022-10-03T12:59:38.567Z,12.07
2022-10-03T13:02:36.763Z,11.90
2022-10-03T13:05:28.437Z,11.83
2022-10-03T13:08:17.508Z,12.13
2022-10-03T13:10:54.132Z,11.23
2022-10-03T13:13:24.913Z,11.10
2022-10-03T13:16:21.282Z,11.67
2022-10-03T13:19:11.705Z,11.47
2022-10-03T13:21:46.349Z,11.73
2022-10-03T13:24:20.666Z,11.90
2022-10-03T13:26:53.723Z,11.50
2022-10-03T13:29:20.868Z,11.57
2022-10-03T13:32:05.719Z,11.73
2022-10-03T13:34:58.202Z,11.80
2022-10-03T13:37:45.515Z,11.47
2022-10-03T13:40:19.044Z,12.27
2022-10-03T13:42:53.697Z,11.33
2022-10-03T13:45:26.427Z,11.77
2022-10-03T13:48:15.114Z,11.97
2022-10-03T13:50:58.587Z,12.00
2022-10-03T13:53:40.721Z,12.60
2022-10-03T13:56:30.617Z,11.80
2022-10-03T13:59:05.771Z,11.60
2022-10-03T14:01:35.926Z,12.13
2022-10-03T14:04:11.951Z,11.40
2022-10-03T14:07:00.632Z,11.80
2022-10-03T14:09:34.314Z,11.93
2022-10-03T14:12:04.370Z,12.50
2022-10-03T14:14:56.021Z,12.47
2022-10-03T14:17:56.976Z,12.47
2022-10-03T14:20:32.370Z,12.00
2022-10-03T14:23:38.063Z,11.90
2022-10-03T14:26:15.673Z,12.30
2022-10-03T14:28:52.718Z,11.97
2022-10-03T14:31:39.208Z,12.10
2022-10-03T14:34:38.154Z,11.83
2022-10-03T14:37:46.700Z,11.63
2022-10-03T14:40:28.005Z,11.80
2022-10-03T14:43:23.925Z,11.83
2022-10-03T14:45:55.271Z,11.83
2022-10-03T14:48:33.400Z,12.37
2022-10-03T14:51:08.813Z,12.37
2022-10-03T14:53:39.708Z,12.07
2022-10-03T14:56:10.312Z,12.43
2022-10-03T14:58:52.398Z,11.90
2022-10-03T15:01:24.918Z,12.17
2022-10-03T15:03:57.649Z,11.80
2022-10-03T15:06:50.405Z,12.30
2022-10-03T15:09:23.457Z,12.10
2022-10-03T15:12:03.390Z,12.37
2022-10-03T15:14:35.065Z,11.87
2022-10-03T15:17:07.067Z,12.27
2022-10-03T15:19:44.079Z,12.30
2022-10-03T15:22:32.574Z,12.17
2022-10-03T15:25:06.380Z,11.93
2022-10-03T15:27:35.097Z,12.03
2022-10-03T15:30:05.393Z,12.93
2022-10-03T15:32:46.950Z,12.60
2022-10-03T15:35:27.884Z,13.30
2022-10-03T15:38:02.580Z,12.67
2022-10-03T15:40:39.213Z,12.70
2022-10-03T15:43:33.653Z,12.47
2022-10-03T15:46:04.255Z,12.50
2022-10-03T15:48:32.373Z,12.93
2022-10-03T15:50:59.914Z,12.67
2022-10-03T15:53:37.183Z,12.93
2022-10-03T15:56:15.526Z,12.77
2022-10-03T15:58:55.119Z,12.57
2022-10-03T16:01:33.675Z,13.20
2022-10-03T16:04:08.663Z,13.33
2022-10-03T16:07:10.763Z,12.97
2022-10-03T16:09:46.646Z,13.10
2022-10-03T16:12:53.096Z,12.90
2022-10-03T16:15:52.186Z,13.27
2022-10-03T16:18:19.115Z,12.77
2022-10-03T16:20:54.973Z,12.33
2022-10-03T16:23:24.664Z,13.00
2022-10-03T16:25:55.708Z,12.80
2022-10-03T16:28:29.345Z,12.87
2022-10-03T16:31:01.482Z,12.73
2022-10-03T16:33:28.530Z,12.70
2022-10-03T16:36:00.920Z,12.80
2022-10-03T16:38:35.459Z,12.93
2022-10-03T16:41:24.316Z,12.73
2022-10-03T16:44:07.439Z,13.30
2022-10-03T16:46:37.869Z,12.77
2022-10-03T16:49:30.586Z,13.00
2022-10-03T16:52:02.799Z,13.00
2022-10-03T16:54:31.842Z,12.93
2022-10-03T16:57:02.067Z,12.73
2022-10-03T16:59:31.263Z,12.63
2022-10-03T17:02:06.971Z,12.40
2022-10-03T17:04:37.615Z,12.40
2022-10-03T17:07:17.871Z,12.77
2022-10-03T17:09:49.150Z,13.00
2022-10-03T17:12:42.246Z,12.50
2022-10-03T17:15:20.817Z,12.70
2022-10-03T17:18:00.001Z,12.80
2022-10-03T17:20:38.975Z,12.27
2022-10-03T17:23:29.405Z,12.80
2022-10-03T17:26:08.326Z,12.07
2022-10-03T17:28:59.137Z,11.97
2022-10-03T17:31:39.503Z,12.13
2022-10-03T17:34:32.408Z,12.73
2022-10-03T17:37:05.147Z,12.70
2022-10-03T17:40:02.698Z,12.10
2022-10-03T17:42:35.037Z,11.90
2022-10-03T17:45:12.482Z,12.10
2022-10-03T17:47:47.008Z,11.83
2022-10-03T17:50:39.315Z,11.67
2022-10-03T17:53:12.338Z,12.00
2022-10-03T17:55:41.387Z,12.13
2022-10-03T17:58:17.261Z,12.20
2022-10-03T18:00:44.361Z,11.90
2022-10-03T18:03:32.937Z,11.60
2022-10-03T18:06:22.825Z,12.00
2022-10-03T18:08:51.725Z,11.63
2022-10-03T18:11:24.768Z,11.67
2022-10-03T18:14:12.725Z,12.07
2022-10-03T18:17:02.765Z,12.10
2022-10-03T18:19:57.907Z,11.60
2022-10-03T18:22:39.859Z,12.20
2022-10-03T18:25:38.792Z,12.10
2022-10-03T18:28:27.753Z,11.67
2022-10-03T18:31:15.782Z,11.77
2022-10-03T18:34:19.792Z,11.73
2022-10-03T18:36:50.544Z,11.97
2022-10-03T18:39:29.267Z,11.80
2022-10-03T18:42:01.569Z,11.00
2022-10-03T18:44:34.042Z,12.07
2022-10-03T18:47:23.350Z,12.07
2022-10-03T18:50:13.190Z,11.93
2022-10-03T18:52:48.972Z,12.70
2022-10-03T18:55:20.652Z,12.47
2022-10-03T18:58:16.627Z,12.57
2022-10-03T19:01:14.408Z,12.37
2022-10-03T19:04:04.772Z,12.90
2022-10-03T19:06:37.634Z,12.03
2022-10-03T19:09:09.524Z,12.20
2022-10-03T19:11:47.627Z,12.53
2022-10-03T19:14:32.495Z,12.17
2022-10-03T19:17:31.018Z,12.17
2022-10-03T19:20:26.846Z,12.03
2022-10-03T19:23:09.587Z,12.40
2022-10-03T19:25:38.932Z,12.07
2022-10-03T19:28:30.756Z,12.20
2022-10-03T19:31:04.100Z,11.93
2022-10-03T19:33:35.918Z,12.20
2022-10-03T19:36:05.755Z,11.93
2022-10-03T19:38:43.374Z,12.17
2022-10-03T19:41:34.161Z,11.80
2022-10-03T19:44:17.456Z,11.93
2022-10-03T19:47:21.921Z,11.23
2022-10-03T19:50:21.505Z,11.93
2022-10-03T19:52:51.931Z,11.70
2022-10-03T19:55:24.841Z,11.87
2022-10-03T19:57:58.795Z,11.97
2022-10-03T20:00:37.952Z,11.73
2022-10-03T20:03:12.681Z,11.67
2022-10-03T20:05:53.518Z,12.23
2022-10-03T20:08:31.426Z,12.03
2022-10-03T20:11:19.418Z,12.40
2022-10-03T20:13:48.478Z,12.57
2022-10-03T20:16:19.258Z,12.60
2022-10-03T20:18:50.450Z,12.77
2022-10-03T20:21:25.897Z,12.93
2022-10-03T20:23:56.845Z,12.60
2022-10-03T20:26:49.395Z,12.87
2022-10-03T20:29:43.208Z,12.70
2022-10-03T20:32:15.824Z,13.70
2022-10-03T20:34:51.010Z,13.07
2022-10-03T20:37:44.293Z,12.93
2022-10-03T20:40:30.665Z,12.13
2022-10-03T20:43:10.275Z,11.67
2022-10-03T20:45:39.076Z,11.70
2022-10-03T20:48:23.748Z,12.13
2022-10-03T20:50:50.873Z,11.60
2022-10-03T20:53:19.503Z,11.57
2022-10-03T20:55:56.398Z,11.60
2022-10-03T20:58:52.264Z,11.23
2022-10-03T21:01:23.829Z,11.27
2022-10-03T21:04:16.767Z,11.80
2022-10-03T21:07:09.412Z,11.47
2022-10-03T21:09:45.408Z,11.23
2022-10-03T21:12:28.465Z,12.00
2022-10-03T21:15:01.550Z,11.97
2022-10-03T21:17:29.171Z,12.00
2022-10-03T21:20:01.247Z,11.97
2022-10-03T21:22:30.657Z,11.33
2022-10-03T21:25:04.750Z,11.63
2022-10-03T21:27:33.820Z,11.67
2022-10-03T21:30:19.574Z,12.03
2022-10-03T21:32:58.325Z,12.03
2022-10-03T21:35:33.657Z,12.33
2022-10-03T21:38:27.177Z,12.13
2022-10-03T21:41:24.013Z,12.27
2022-10-03T21:44:11.074Z,12.40
2022-10-03T21:47:05.553Z,12.23
2022-10-03T21:49:51.496Z,12.30
2022-10-03T21:52:21.261Z,12.30
2022-10-03T21:54:53.739Z,12.50
2022-10-03T21:57:57.900Z,12.67
2022-10-03T22:00:31.530Z,12.30
2022-10-03T22:03:14.595Z,12.00
2022-10-03T22:06:03.945Z,12.50
2022-10-03T22:08:35.243Z,12.40
2022-10-03T22:11:34.503Z,12.60
2022-10-03T22:14:26.473Z,12.60
2022-10-03T22:16:55.922Z,12.70
2022-10-03T22:19:40.743Z,12.60
2022-10-03T22:22:13.510Z,12.33
2022-10-03T22:24:49.407Z,12.80
2022-10-03T22:27:35.132Z,12.47
2022-10-03T22:30:06.385Z,12.77
2022-10-03T22:32:50.266Z,13.00
2022-10-03T22:35:32.880Z,12.53
2022-10-03T22:38:01.096Z,12.33
2022-10-03T22:40:29.346Z,12.20
2022-10-03T22:42:58.628Z,12.37
2022-10-03T22:45:29.084Z,12.30
2022-10-03T22:47:59.692Z,12.30
2022-10-03T22:50:30.535Z,12.30
2022-10-03T22:52:59.862Z,12.60
2022-10-03T22:55:28.237Z,12.53
2022-10-03T22:57:55.697Z,12.23
2022-10-03T23:00:25.397Z,12.50
2022-10-03T23:03:06.351Z,12.37
2022-10-03T23:05:51.454Z,12.50
2022-10-03T23:08:42.477Z,12.60
2022-10-03T23:11:24.462Z,12.37
2022-10-03T23:13:51.644Z,12.10
2022-10-03T23:16:36.352Z,12.20
2022-10-03T23:19:26.168Z,12.23
2022-10-03T23:21:56.786Z,12.13
2022-10-03T23:24:35.632Z,12.27
2022-10-03T23:27:46.317Z,12.67
2022-10-03T23:30:33.095Z,12.57
2022-10-03T23:33:02.901Z,12.03
2022-10-03T23:35:42.823Z,14.70
2022-10-03T23:38:31.511Z,16.50
2022-10-03T23:41:03.031Z,12.97
2022-10-03T23:43:33.757Z,12.53
2022-10-03T23:46:03.902Z,12.20
2022-10-03T23:48:38.182Z,12.10
2022-10-03T23:51:08.006Z,11.97
2022-10-03T23:53:41.845Z,12.03
2022-10-03T23:56:28.928Z,12.37
2022-10-03T23:59:11.271Z,12.50
